sensor_id;sensor_type;location;lat;lon;timestamp;temperature;humidity
21770;DHT22;11046;49.558;8.674;2023-02-22T00:00:20;4.80;96.80
21770;DHT22;11046;49.558;8.674;2023-02-22T00:03:30;4.70;97.00
21770;DHT22;11046;49.558;8.674;2023-02-22T00:06:34;4.70;97.00
21770;DHT22;11046;49.558;8.674;2023-02-22T00:09:34;4.60;97.10
21770;DHT22;11046;49.558;8.674;2023-02-22T00:12:35;4.70;97.20
21770;DHT22;11046;49.558;8.674;2023-02-22T00:15:36;4.70;97.10
21770;DHT22;11046;49.558;8.674;2023-02-22T00:18:36;4.70;97.00
21770;DHT22;11046;49.558;8.674;2023-02-22T00:21:37;4.60;97.00
21770;DHT22;11046;49.558;8.674;2023-02-22T00:24:37;4.60;97.10
21770;DHT22;11046;49.558;8.674;2023-02-22T00:27:38;4.50;97.20
21770;DHT22;11046;49.558;8.674;2023-02-22T00:30:39;4.50;97.30
21770;DHT22;11046;49.558;8.674;2023-02-22T00:33:43;4.40;97.30
21770;DHT22;11046;49.558;8.674;2023-02-22T00:36:45;4.30;97.40
21770;DHT22;11046;49.558;8.674;2023-02-22T00:39:47;4.30;97.60
21770;DHT22;11046;49.558;8.674;2023-02-22T00:42:49;4.30;97.70
21770;DHT22;11046;49.558;8.674;2023-02-22T00:45:50;4.30;97.70
21770;DHT22;11046;49.558;8.674;2023-02-22T00:48:51;4.30;97.80
21770;DHT22;11046;49.558;8.674;2023-02-22T00:51:52;4.30;97.80
21770;DHT22;11046;49.558;8.674;2023-02-22T00:54:54;4.30;97.80
21770;DHT22;11046;49.558;8.674;2023-02-22T00:57:58;4.30;97.70
21770;DHT22;11046;49.558;8.674;2023-02-22T01:00:58;4.30;97.70
21770;DHT22;11046;49.558;8.674;2023-02-22T01:03:59;4.30;97.70
21770;DHT22;11046;49.558;8.674;2023-02-22T01:07:00;4.30;97.70
21770;DHT22;11046;49.558;8.674;2023-02-22T01:10:02;4.30;97.70
21770;DHT22;11046;49.558;8.674;2023-02-22T01:13:03;4.30;97.70
21770;DHT22;11046;49.558;8.674;2023-02-22T01:16:07;4.10;97.90
21770;DHT22;11046;49.558;8.674;2023-02-22T01:19:08;4.00;98.00
21770;DHT22;11046;49.558;8.674;2023-02-22T01:22:08;4.00;98.00
21770;DHT22;11046;49.558;8.674;2023-02-22T01:25:11;3.90;98.00
21770;DHT22;11046;49.558;8.674;2023-02-22T01:28:14;3.80;98.10
21770;DHT22;11046;49.558;8.674;2023-02-22T01:31:15;3.80;98.20
21770;DHT22;11046;49.558;8.674;2023-02-22T01:34:17;3.70;98.30
21770;DHT22;11046;49.558;8.674;2023-02-22T01:37:18;3.70;98.40
21770;DHT22;11046;49.558;8.674;2023-02-22T01:40:23;3.70;98.40
21770;DHT22;11046;49.558;8.674;2023-02-22T01:43:25;3.80;98.70
21770;DHT22;11046;49.558;8.674;2023-02-22T01:46:26;3.70;98.30
21770;DHT22;11046;49.558;8.674;2023-02-22T01:49:32;3.70;98.10
21770;DHT22;11046;49.558;8.674;2023-02-22T01:52:34;3.80;98.20
21770;DHT22;11046;49.558;8.674;2023-02-22T01:55:35;3.80;98.20
21770;DHT22;11046;49.558;8.674;2023-02-22T01:58:38;3.80;98.10
21770;DHT22;11046;49.558;8.674;2023-02-22T02:01:41;3.70;98.50
21770;DHT22;11046;49.558;8.674;2023-02-22T02:04:45;3.70;98.20
21770;DHT22;11046;49.558;8.674;2023-02-22T02:07:45;3.80;98.20
21770;DHT22;11046;49.558;8.674;2023-02-22T02:10:47;3.70;98.10
21770;DHT22;11046;49.558;8.674;2023-02-22T02:13:53;3.70;98.20
21770;DHT22;11046;49.558;8.674;2023-02-22T02:16:54;3.70;98.30
21770;DHT22;11046;49.558;8.674;2023-02-22T02:20:23;3.70;98.10
21770;DHT22;11046;49.558;8.674;2023-02-22T02:33:48;3.70;98.30
21770;DHT22;11046;49.558;8.674;2023-02-22T02:37:20;3.60;98.30
21770;DHT22;11046;49.558;8.674;2023-02-22T02:40:46;3.60;98.40
21770;DHT22;11046;49.558;8.674;2023-02-22T02:43:54;3.50;98.60
21770;DHT22;11046;49.558;8.674;2023-02-22T02:47:05;3.50;98.70
21770;DHT22;11046;49.558;8.674;2023-02-22T02:50:26;3.40;98.70
21770;DHT22;11046;49.558;8.674;2023-02-22T02:53:35;3.40;98.80
21770;DHT22;11046;49.558;8.674;2023-02-22T02:56:37;3.40;98.90
21770;DHT22;11046;49.558;8.674;2023-02-22T02:59:37;3.30;98.90
21770;DHT22;11046;49.558;8.674;2023-02-22T03:03:03;3.30;98.90
21770;DHT22;11046;49.558;8.674;2023-02-22T03:06:12;3.30;99.00
21770;DHT22;11046;49.558;8.674;2023-02-22T03:09:40;3.30;98.80
21770;DHT22;11046;49.558;8.674;2023-02-22T03:19:44;3.40;98.70
21770;DHT22;11046;49.558;8.674;2023-02-22T03:22:56;3.30;98.70
21770;DHT22;11046;49.558;8.674;2023-02-22T03:26:08;3.30;98.60
21770;DHT22;11046;49.558;8.674;2023-02-22T03:29:13;3.30;98.60
21770;DHT22;11046;49.558;8.674;2023-02-22T03:32:22;3.40;98.60
21770;DHT22;11046;49.558;8.674;2023-02-22T03:35:28;3.40;98.50
21770;DHT22;11046;49.558;8.674;2023-02-22T03:38:32;3.40;98.30
21770;DHT22;11046;49.558;8.674;2023-02-22T03:41:35;3.30;98.30
21770;DHT22;11046;49.558;8.674;2023-02-22T03:44:40;3.30;98.30
21770;DHT22;11046;49.558;8.674;2023-02-22T03:47:47;3.30;98.30
21770;DHT22;11046;49.558;8.674;2023-02-22T03:50:52;3.30;98.40
21770;DHT22;11046;49.558;8.674;2023-02-22T03:53:54;3.30;98.30
21770;DHT22;11046;49.558;8.674;2023-02-22T03:57:20;3.20;98.40
21770;DHT22;11046;49.558;8.674;2023-02-22T04:00:29;3.20;98.50
21770;DHT22;11046;49.558;8.674;2023-02-22T04:03:31;3.30;98.30
21770;DHT22;11046;49.558;8.674;2023-02-22T04:06:31;3.30;98.20
21770;DHT22;11046;49.558;8.674;2023-02-22T04:09:34;3.20;98.20
21770;DHT22;11046;49.558;8.674;2023-02-22T04:12:35;3.10;98.40
21770;DHT22;11046;49.558;8.674;2023-02-22T04:15:38;3.00;98.50
21770;DHT22;11046;49.558;8.674;2023-02-22T04:18:41;3.00;98.60
21770;DHT22;11046;49.558;8.674;2023-02-22T04:21:42;3.00;98.60
21770;DHT22;11046;49.558;8.674;2023-02-22T04:24:50;3.10;98.60
21770;DHT22;11046;49.558;8.674;2023-02-22T04:27:52;3.00;98.50
21770;DHT22;11046;49.558;8.674;2023-02-22T04:30:57;3.00;98.50
21770;DHT22;11046;49.558;8.674;2023-02-22T04:33:59;3.00;98.50
21770;DHT22;11046;49.558;8.674;2023-02-22T04:37:04;3.00;98.60
21770;DHT22;11046;49.558;8.674;2023-02-22T04:40:05;3.00;98.50
21770;DHT22;11046;49.558;8.674;2023-02-22T04:43:08;2.90;98.60
21770;DHT22;11046;49.558;8.674;2023-02-22T04:46:09;2.80;98.60
21770;DHT22;11046;49.558;8.674;2023-02-22T04:49:09;2.80;98.70
21770;DHT22;11046;49.558;8.674;2023-02-22T04:52:12;2.90;98.70
21770;DHT22;11046;49.558;8.674;2023-02-22T04:55:13;2.90;98.60
21770;DHT22;11046;49.558;8.674;2023-02-22T04:58:14;2.90;98.60
21770;DHT22;11046;49.558;8.674;2023-02-22T05:01:15;2.90;98.60
21770;DHT22;11046;49.558;8.674;2023-02-22T05:04:16;2.90;98.50
21770;DHT22;11046;49.558;8.674;2023-02-22T05:07:17;2.90;98.50
21770;DHT22;11046;49.558;8.674;2023-02-22T05:10:18;2.80;98.60
21770;DHT22;11046;49.558;8.674;2023-02-22T05:13:19;2.70;98.70
21770;DHT22;11046;49.558;8.674;2023-02-22T05:16:19;2.80;98.80
21770;DHT22;11046;49.558;8.674;2023-02-22T05:19:20;2.80;98.70
21770;DHT22;11046;49.558;8.674;2023-02-22T05:22:20;2.80;98.60
21770;DHT22;11046;49.558;8.674;2023-02-22T05:25:21;2.80;98.60
21770;DHT22;11046;49.558;8.674;2023-02-22T05:28:22;2.80;98.60
21770;DHT22;11046;49.558;8.674;2023-02-22T05:31:22;2.80;98.70
21770;DHT22;11046;49.558;8.674;2023-02-22T05:34:23;2.80;98.70
21770;DHT22;11046;49.558;8.674;2023-02-22T05:37:24;2.80;98.70
21770;DHT22;11046;49.558;8.674;2023-02-22T05:40:25;2.80;98.70
21770;DHT22;11046;49.558;8.674;2023-02-22T05:43:26;2.80;98.60
21770;DHT22;11046;49.558;8.674;2023-02-22T05:46:27;2.80;98.60
21770;DHT22;11046;49.558;8.674;2023-02-22T05:49:27;2.70;98.60
21770;DHT22;11046;49.558;8.674;2023-02-22T05:52:28;2.80;98.70
21770;DHT22;11046;49.558;8.674;2023-02-22T05:55:28;2.70;98.70
21770;DHT22;11046;49.558;8.674;2023-02-22T05:58:29;2.70;98.70
21770;DHT22;11046;49.558;8.674;2023-02-22T06:01:29;2.70;98.70
21770;DHT22;11046;49.558;8.674;2023-02-22T06:04:30;2.60;98.70
21770;DHT22;11046;49.558;8.674;2023-02-22T06:07:31;2.60;98.80
21770;DHT22;11046;49.558;8.674;2023-02-22T06:10:32;2.60;98.90
21770;DHT22;11046;49.558;8.674;2023-02-22T06:13:32;2.60;99.00
21770;DHT22;11046;49.558;8.674;2023-02-22T06:16:33;2.60;99.10
21770;DHT22;11046;49.558;8.674;2023-02-22T06:19:33;2.60;99.00
21770;DHT22;11046;49.558;8.674;2023-02-22T06:22:34;2.60;98.90
21770;DHT22;11046;49.558;8.674;2023-02-22T06:25:34;2.70;98.90
21770;DHT22;11046;49.558;8.674;2023-02-22T06:28:35;2.60;98.90
21770;DHT22;11046;49.558;8.674;2023-02-22T06:31:36;2.60;99.00
21770;DHT22;11046;49.558;8.674;2023-02-22T06:34:37;2.60;99.00
21770;DHT22;11046;49.558;8.674;2023-02-22T06:37:38;2.60;99.00
21770;DHT22;11046;49.558;8.674;2023-02-22T06:40:39;2.70;99.00
21770;DHT22;11046;49.558;8.674;2023-02-22T06:43:39;2.70;99.00
21770;DHT22;11046;49.558;8.674;2023-02-22T06:46:46;2.80;99.10
21770;DHT22;11046;49.558;8.674;2023-02-22T06:49:59;2.80;99.10
21770;DHT22;11046;49.558;8.674;2023-02-22T06:53:03;2.80;99.20
21770;DHT22;11046;49.558;8.674;2023-02-22T06:56:04;2.90;99.20
21770;DHT22;11046;49.558;8.674;2023-02-22T06:59:04;2.90;99.20
21770;DHT22;11046;49.558;8.674;2023-02-22T07:02:05;3.00;99.10
21770;DHT22;11046;49.558;8.674;2023-02-22T07:05:06;3.10;99.10
21770;DHT22;11046;49.558;8.674;2023-02-22T07:08:07;3.20;99.20
21770;DHT22;11046;49.558;8.674;2023-02-22T07:11:07;3.20;99.20
21770;DHT22;11046;49.558;8.674;2023-02-22T07:14:08;3.20;99.20
21770;DHT22;11046;49.558;8.674;2023-02-22T07:17:09;3.30;99.20
21770;DHT22;11046;49.558;8.674;2023-02-22T07:20:10;3.30;99.30
21770;DHT22;11046;49.558;8.674;2023-02-22T07:23:15;3.40;99.40
21770;DHT22;11046;49.558;8.674;2023-02-22T07:26:16;3.40;99.40
21770;DHT22;11046;49.558;8.674;2023-02-22T07:29:16;3.60;99.50
21770;DHT22;11046;49.558;8.674;2023-02-22T07:32:17;3.70;99.40
21770;DHT22;11046;49.558;8.674;2023-02-22T07:35:23;3.80;99.40
21770;DHT22;11046;49.558;8.674;2023-02-22T07:38:24;3.90;99.40
21770;DHT22;11046;49.558;8.674;2023-02-22T07:41:25;4.00;99.40
21770;DHT22;11046;49.558;8.674;2023-02-22T07:44:26;4.10;99.50
21770;DHT22;11046;49.558;8.674;2023-02-22T07:47:26;4.20;99.40
21770;DHT22;11046;49.558;8.674;2023-02-22T07:50:28;4.30;99.40
21770;DHT22;11046;49.558;8.674;2023-02-22T07:53:32;4.40;99.40
21770;DHT22;11046;49.558;8.674;2023-02-22T07:56:33;4.60;99.50
21770;DHT22;11046;49.558;8.674;2023-02-22T07:59:33;4.70;99.60
21770;DHT22;11046;49.558;8.674;2023-02-22T08:02:34;4.80;99.60
21770;DHT22;11046;49.558;8.674;2023-02-22T08:05:36;5.00;99.60
21770;DHT22;11046;49.558;8.674;2023-02-22T08:08:37;5.20;99.60
21770;DHT22;11046;49.558;8.674;2023-02-22T08:11:38;5.50;99.50
21770;DHT22;11046;49.558;8.674;2023-02-22T08:14:38;5.70;99.50
21770;DHT22;11046;49.558;8.674;2023-02-22T08:17:39;5.90;99.40
21770;DHT22;11046;49.558;8.674;2023-02-22T08:20:41;6.00;99.30
21770;DHT22;11046;49.558;8.674;2023-02-22T08:23:42;6.30;99.20
21770;DHT22;11046;49.558;8.674;2023-02-22T08:26:46;6.50;99.10
21770;DHT22;11046;49.558;8.674;2023-02-22T08:29:47;6.70;99.10
21770;DHT22;11046;49.558;8.674;2023-02-22T08:32:48;7.00;99.10
21770;DHT22;11046;49.558;8.674;2023-02-22T08:35:49;7.30;98.90
21770;DHT22;11046;49.558;8.674;2023-02-22T08:38:50;7.60;98.80
21770;DHT22;11046;49.558;8.674;2023-02-22T08:41:51;8.00;98.70
21770;DHT22;11046;49.558;8.674;2023-02-22T08:44:51;8.20;98.30
21770;DHT22;11046;49.558;8.674;2023-02-22T08:47:52;8.40;98.10
21770;DHT22;11046;49.558;8.674;2023-02-22T08:50:53;8.50;98.00
21770;DHT22;11046;49.558;8.674;2023-02-22T08:53:54;8.70;97.90
21770;DHT22;11046;49.558;8.674;2023-02-22T08:56:54;8.90;97.60
21770;DHT22;11046;49.558;8.674;2023-02-22T08:59:55;9.00;97.50
21770;DHT22;11046;49.558;8.674;2023-02-22T09:02:55;9.20;97.90
21770;DHT22;11046;49.558;8.674;2023-02-22T09:05:56;9.40;97.40
21770;DHT22;11046;49.558;8.674;2023-02-22T09:08:58;9.70;97.30
21770;DHT22;11046;49.558;8.674;2023-02-22T09:11:59;10.00;96.90
21770;DHT22;11046;49.558;8.674;2023-02-22T09:14:59;10.20;96.70
21770;DHT22;11046;49.558;8.674;2023-02-22T09:18:00;10.60;96.40
21770;DHT22;11046;49.558;8.674;2023-02-22T09:21:01;10.90;96.10
21770;DHT22;11046;49.558;8.674;2023-02-22T09:24:02;11.20;95.60
21770;DHT22;11046;49.558;8.674;2023-02-22T09:27:07;11.50;95.10
21770;DHT22;11046;49.558;8.674;2023-02-22T09:30:22;11.50;94.70
21770;DHT22;11046;49.558;8.674;2023-02-22T09:33:23;11.40;94.40
21770;DHT22;11046;49.558;8.674;2023-02-22T09:36:25;11.60;94.50
21770;DHT22;11046;49.558;8.674;2023-02-22T09:39:25;11.80;94.50
21770;DHT22;11046;49.558;8.674;2023-02-22T09:42:32;12.00;94.30
21770;DHT22;11046;49.558;8.674;2023-02-22T09:45:41;12.20;93.90
21770;DHT22;11046;49.558;8.674;2023-02-22T09:48:55;12.40;94.00
21770;DHT22;11046;49.558;8.674;2023-02-22T09:52:02;12.60;93.50
21770;DHT22;11046;49.558;8.674;2023-02-22T09:55:19;12.70;93.20
21770;DHT22;11046;49.558;8.674;2023-02-22T09:58:32;12.80;92.90
21770;DHT22;11046;49.558;8.674;2023-02-22T10:01:41;12.90;92.80
21770;DHT22;11046;49.558;8.674;2023-02-22T10:04:50;12.80;92.60
21770;DHT22;11046;49.558;8.674;2023-02-22T10:08:01;12.80;92.50
21770;DHT22;11046;49.558;8.674;2023-02-22T10:11:25;12.70;92.30
21770;DHT22;11046;49.558;8.674;2023-02-22T10:14:57;12.60;92.20
21770;DHT22;11046;49.558;8.674;2023-02-22T10:25:04;12.50;91.90
21770;DHT22;11046;49.558;8.674;2023-02-22T10:28:28;12.30;91.80
21770;DHT22;11046;49.558;8.674;2023-02-22T10:31:33;12.10;91.40
21770;DHT22;11046;49.558;8.674;2023-02-22T10:34:55;12.00;91.50
21770;DHT22;11046;49.558;8.674;2023-02-22T10:41:31;12.20;91.40
21770;DHT22;11046;49.558;8.674;2023-02-22T10:44:33;12.40;91.30
21770;DHT22;11046;49.558;8.674;2023-02-22T10:47:33;12.60;91.40
21770;DHT22;11046;49.558;8.674;2023-02-22T10:50:37;12.90;90.90
21770;DHT22;11046;49.558;8.674;2023-02-22T10:53:40;12.80;90.20
21770;DHT22;11046;49.558;8.674;2023-02-22T10:56:49;12.80;90.50
21770;DHT22;11046;49.558;8.674;2023-02-22T10:59:50;12.90;90.40
21770;DHT22;11046;49.558;8.674;2023-02-22T11:03:00;13.20;90.40
21770;DHT22;11046;49.558;8.674;2023-02-22T11:06:18;13.30;90.10
21770;DHT22;11046;49.558;8.674;2023-02-22T11:09:20;13.40;89.70
21770;DHT22;11046;49.558;8.674;2023-02-22T11:12:32;13.50;90.00
21770;DHT22;11046;49.558;8.674;2023-02-22T11:15:33;13.50;89.40
21770;DHT22;11046;49.558;8.674;2023-02-22T11:18:35;13.60;89.30
21770;DHT22;11046;49.558;8.674;2023-02-22T11:21:36;13.70;88.70
21770;DHT22;11046;49.558;8.674;2023-02-22T11:24:49;13.90;88.80
21770;DHT22;11046;49.558;8.674;2023-02-22T11:27:51;14.10;87.60
21770;DHT22;11046;49.558;8.674;2023-02-22T11:30:52;14.30;87.60
21770;DHT22;11046;49.558;8.674;2023-02-22T11:33:58;14.40;86.90
21770;DHT22;11046;49.558;8.674;2023-02-22T11:37:26;14.30;85.60
21770;DHT22;11046;49.558;8.674;2023-02-22T11:40:28;14.30;85.50
21770;DHT22;11046;49.558;8.674;2023-02-22T11:43:29;14.30;85.70
21770;DHT22;11046;49.558;8.674;2023-02-22T11:46:34;14.20;85.70
21770;DHT22;11046;49.558;8.674;2023-02-22T11:49:38;14.30;85.70
21770;DHT22;11046;49.558;8.674;2023-02-22T11:52:44;14.40;85.60
21770;DHT22;11046;49.558;8.674;2023-02-22T11:59:35;14.60;84.00
21770;DHT22;11046;49.558;8.674;2023-02-22T12:02:59;14.60;83.90
21770;DHT22;11046;49.558;8.674;2023-02-22T12:06:20;14.70;83.70
21770;DHT22;11046;49.558;8.674;2023-02-22T12:09:34;14.60;83.80
21770;DHT22;11046;49.558;8.674;2023-02-22T12:20:07;14.80;82.60
21770;DHT22;11046;49.558;8.674;2023-02-22T12:22:52;14.80;82.40
21770;DHT22;11046;49.558;8.674;2023-02-22T12:26:00;14.80;82.10
21770;DHT22;11046;49.558;8.674;2023-02-22T12:29:18;14.90;82.30
21770;DHT22;11046;49.558;8.674;2023-02-22T12:32:31;14.90;81.80
21770;DHT22;11046;49.558;8.674;2023-02-22T12:35:36;15.00;82.40
21770;DHT22;11046;49.558;8.674;2023-02-22T12:38:42;14.90;81.30
21770;DHT22;11046;49.558;8.674;2023-02-22T12:41:46;15.00;81.30
21770;DHT22;11046;49.558;8.674;2023-02-22T12:44:54;15.10;80.70
21770;DHT22;11046;49.558;8.674;2023-02-22T12:48:53;15.00;80.70
21770;DHT22;11046;49.558;8.674;2023-02-22T12:51:58;15.10;80.30
21770;DHT22;11046;49.558;8.674;2023-02-22T12:55:37;15.20;80.50
21770;DHT22;11046;49.558;8.674;2023-02-22T12:59:02;15.10;79.70
21770;DHT22;11046;49.558;8.674;2023-02-22T13:02:18;15.10;80.70
21770;DHT22;11046;49.558;8.674;2023-02-22T13:05:20;15.20;81.00
21770;DHT22;11046;49.558;8.674;2023-02-22T13:11:42;15.20;81.80
21770;DHT22;11046;49.558;8.674;2023-02-22T13:18:30;15.40;80.00
21770;DHT22;11046;49.558;8.674;2023-02-22T13:21:46;15.50;79.80
21770;DHT22;11046;49.558;8.674;2023-02-22T13:25:01;15.40;79.70
21770;DHT22;11046;49.558;8.674;2023-02-22T13:28:22;15.20;79.80
21770;DHT22;11046;49.558;8.674;2023-02-22T13:31:46;15.30;80.20
21770;DHT22;11046;49.558;8.674;2023-02-22T13:42:04;15.90;79.50
21770;DHT22;11046;49.558;8.674;2023-02-22T13:45:20;16.00;78.50
21770;DHT22;11046;49.558;8.674;2023-02-22T13:51:52;15.90;78.00
21770;DHT22;11046;49.558;8.674;2023-02-22T13:55:01;15.80;77.80
21770;DHT22;11046;49.558;8.674;2023-02-22T13:58:06;15.70;78.20
21770;DHT22;11046;49.558;8.674;2023-02-22T14:01:43;15.60;78.20
21770;DHT22;11046;49.558;8.674;2023-02-22T14:04:47;15.50;77.80
21770;DHT22;11046;49.558;8.674;2023-02-22T14:07:48;15.40;78.40
21770;DHT22;11046;49.558;8.674;2023-02-22T14:11:05;15.30;78.60
21770;DHT22;11046;49.558;8.674;2023-02-22T14:17:21;15.30;78.80
21770;DHT22;11046;49.558;8.674;2023-02-22T14:20:28;15.30;78.80
21770;DHT22;11046;49.558;8.674;2023-02-22T14:27:00;15.10;79.20
21770;DHT22;11046;49.558;8.674;2023-02-22T14:30:03;15.10;79.00
21770;DHT22;11046;49.558;8.674;2023-02-22T14:37:05;14.90;79.10
21770;DHT22;11046;49.558;8.674;2023-02-22T14:40:24;14.90;80.00
21770;DHT22;11046;49.558;8.674;2023-02-22T14:43:26;14.80;79.20
21770;DHT22;11046;49.558;8.674;2023-02-22T14:46:31;14.80;79.20
21770;DHT22;11046;49.558;8.674;2023-02-22T14:49:41;14.80;79.20
21770;DHT22;11046;49.558;8.674;2023-02-22T14:52:44;14.60;79.50
21770;DHT22;11046;49.558;8.674;2023-02-22T14:55:52;14.60;79.70
21770;DHT22;11046;49.558;8.674;2023-02-22T14:59:14;14.70;79.80
21770;DHT22;11046;49.558;8.674;2023-02-22T15:02:18;14.70;79.70
21770;DHT22;11046;49.558;8.674;2023-02-22T15:05:19;14.70;79.90
21770;DHT22;11046;49.558;8.674;2023-02-22T15:08:20;14.50;79.80
21770;DHT22;11046;49.558;8.674;2023-02-22T15:11:29;14.50;80.00
21770;DHT22;11046;49.558;8.674;2023-02-22T15:14:34;14.40;79.90
21770;DHT22;11046;49.558;8.674;2023-02-22T15:17:39;14.40;79.80
21770;DHT22;11046;49.558;8.674;2023-02-22T15:20:41;14.40;79.80
21770;DHT22;11046;49.558;8.674;2023-02-22T15:23:51;14.40;79.40
21770;DHT22;11046;49.558;8.674;2023-02-22T15:26:54;14.40;79.20
21770;DHT22;11046;49.558;8.674;2023-02-22T15:30:04;14.40;79.20
21770;DHT22;11046;49.558;8.674;2023-02-22T15:33:16;14.40;79.90
21770;DHT22;11046;49.558;8.674;2023-02-22T15:36:26;14.30;79.70
21770;DHT22;11046;49.558;8.674;2023-02-22T15:39:33;14.20;79.10
21770;DHT22;11046;49.558;8.674;2023-02-22T15:42:45;14.20;79.20
21770;DHT22;11046;49.558;8.674;2023-02-22T15:45:46;14.20;79.20
21770;DHT22;11046;49.558;8.674;2023-02-22T15:52:29;14.10;79.20
21770;DHT22;11046;49.558;8.674;2023-02-22T15:55:34;14.00;79.80
21770;DHT22;11046;49.558;8.674;2023-02-22T15:58:36;13.90;80.00
21770;DHT22;11046;49.558;8.674;2023-02-22T16:01:41;13.80;80.10
21770;DHT22;11046;49.558;8.674;2023-02-22T16:04:43;13.80;80.30
21770;DHT22;11046;49.558;8.674;2023-02-22T16:07:49;13.80;80.30
21770;DHT22;11046;49.558;8.674;2023-02-22T16:11:06;13.70;80.30
21770;DHT22;11046;49.558;8.674;2023-02-22T16:14:39;13.60;80.60
21770;DHT22;11046;49.558;8.674;2023-02-22T16:17:40;13.50;80.60
21770;DHT22;11046;49.558;8.674;2023-02-22T16:20:42;13.40;80.80
21770;DHT22;11046;49.558;8.674;2023-02-22T16:23:52;13.30;81.00
21770;DHT22;11046;49.558;8.674;2023-02-22T16:27:23;13.30;81.10
21770;DHT22;11046;49.558;8.674;2023-02-22T16:30:38;13.10;81.60
21770;DHT22;11046;49.558;8.674;2023-02-22T16:33:39;13.00;82.10
21770;DHT22;11046;49.558;8.674;2023-02-22T16:36:45;12.90;82.30
21770;DHT22;11046;49.558;8.674;2023-02-22T16:39:47;12.80;82.60
21770;DHT22;11046;49.558;8.674;2023-02-22T16:42:51;12.70;82.90
21770;DHT22;11046;49.558;8.674;2023-02-22T16:45:52;12.60;83.20
21770;DHT22;11046;49.558;8.674;2023-02-22T16:48:54;12.50;83.70
21770;DHT22;11046;49.558;8.674;2023-02-22T16:51:59;12.40;84.00
21770;DHT22;11046;49.558;8.674;2023-02-22T16:55:02;12.40;84.50
21770;DHT22;11046;49.558;8.674;2023-02-22T16:58:05;12.30;84.50
21770;DHT22;11046;49.558;8.674;2023-02-22T17:01:06;12.10;84.70
21770;DHT22;11046;49.558;8.674;2023-02-22T17:04:16;12.00;85.00
21770;DHT22;11046;49.558;8.674;2023-02-22T17:07:21;11.80;85.40
21770;DHT22;11046;49.558;8.674;2023-02-22T17:10:29;11.70;85.60
21770;DHT22;11046;49.558;8.674;2023-02-22T17:13:30;11.60;85.70
21770;DHT22;11046;49.558;8.674;2023-02-22T17:16:35;11.50;86.10
21770;DHT22;11046;49.558;8.674;2023-02-22T17:19:36;11.30;86.40
21770;DHT22;11046;49.558;8.674;2023-02-22T17:22:37;11.30;86.80
21770;DHT22;11046;49.558;8.674;2023-02-22T17:25:42;11.10;86.90
21770;DHT22;11046;49.558;8.674;2023-02-22T17:28:44;11.00;87.30
21770;DHT22;11046;49.558;8.674;2023-02-22T17:31:46;10.90;87.40
21770;DHT22;11046;49.558;8.674;2023-02-22T17:34:49;10.90;87.60
21770;DHT22;11046;49.558;8.674;2023-02-22T17:37:51;10.90;87.70
21770;DHT22;11046;49.558;8.674;2023-02-22T17:40:52;10.70;87.70
21770;DHT22;11046;49.558;8.674;2023-02-22T17:43:56;10.70;88.10
21770;DHT22;11046;49.558;8.674;2023-02-22T17:46:59;10.60;88.20
21770;DHT22;11046;49.558;8.674;2023-02-22T17:50:00;10.50;88.40
21770;DHT22;11046;49.558;8.674;2023-02-22T17:53:00;10.40;88.70
21770;DHT22;11046;49.558;8.674;2023-02-22T17:56:10;10.40;89.70
21770;DHT22;11046;49.558;8.674;2023-02-22T17:59:13;10.40;89.00
21770;DHT22;11046;49.558;8.674;2023-02-22T18:02:14;10.40;88.80
21770;DHT22;11046;49.558;8.674;2023-02-22T18:05:16;10.30;88.90
21770;DHT22;11046;49.558;8.674;2023-02-22T18:08:18;10.30;89.10
21770;DHT22;11046;49.558;8.674;2023-02-22T18:11:20;10.20;89.30
21770;DHT22;11046;49.558;8.674;2023-02-22T18:14:25;10.20;89.60
21770;DHT22;11046;49.558;8.674;2023-02-22T18:17:26;10.20;89.60
21770;DHT22;11046;49.558;8.674;2023-02-22T18:20:27;10.20;89.80
21770;DHT22;11046;49.558;8.674;2023-02-22T18:23:38;10.20;90.00
21770;DHT22;11046;49.558;8.674;2023-02-22T18:26:39;10.20;90.00
21770;DHT22;11046;49.558;8.674;2023-02-22T18:29:41;10.10;90.00
21770;DHT22;11046;49.558;8.674;2023-02-22T18:32:42;10.10;90.10
21770;DHT22;11046;49.558;8.674;2023-02-22T18:35:48;10.20;90.10
21770;DHT22;11046;49.558;8.674;2023-02-22T18:38:53;10.10;90.30
21770;DHT22;11046;49.558;8.674;2023-02-22T18:41:54;10.00;90.30
21770;DHT22;11046;49.558;8.674;2023-02-22T18:44:55;10.00;90.40
21770;DHT22;11046;49.558;8.674;2023-02-22T18:48:00;10.00;90.50
21770;DHT22;11046;49.558;8.674;2023-02-22T18:51:09;9.90;90.60
21770;DHT22;11046;49.558;8.674;2023-02-22T18:54:11;9.80;90.80
21770;DHT22;11046;49.558;8.674;2023-02-22T18:57:12;9.80;90.80
21770;DHT22;11046;49.558;8.674;2023-02-22T19:03:17;9.70;91.00
21770;DHT22;11046;49.558;8.674;2023-02-22T19:06:18;9.60;91.30
21770;DHT22;11046;49.558;8.674;2023-02-22T19:09:23;9.60;91.30
21770;DHT22;11046;49.558;8.674;2023-02-22T19:12:24;9.70;91.40
21770;DHT22;11046;49.558;8.674;2023-02-22T19:15:27;9.60;91.40
21770;DHT22;11046;49.558;8.674;2023-02-22T19:18:28;9.60;91.50
21770;DHT22;11046;49.558;8.674;2023-02-22T19:21:31;9.60;91.60
21770;DHT22;11046;49.558;8.674;2023-02-22T19:24:36;9.60;91.70
21770;DHT22;11046;49.558;8.674;2023-02-22T19:27:40;9.60;91.70
21770;DHT22;11046;49.558;8.674;2023-02-22T19:30:44;9.60;91.70
21770;DHT22;11046;49.558;8.674;2023-02-22T19:33:46;9.60;91.80
21770;DHT22;11046;49.558;8.674;2023-02-22T19:36:49;9.60;91.90
21770;DHT22;11046;49.558;8.674;2023-02-22T19:39:50;9.50;92.00
21770;DHT22;11046;49.558;8.674;2023-02-22T19:42:51;9.50;92.10
21770;DHT22;11046;49.558;8.674;2023-02-22T19:45:52;9.40;92.10
21770;DHT22;11046;49.558;8.674;2023-02-22T19:48:55;9.50;92.20
21770;DHT22;11046;49.558;8.674;2023-02-22T19:51:56;9.40;92.30
21770;DHT22;11046;49.558;8.674;2023-02-22T19:54:57;9.30;92.40
21770;DHT22;11046;49.558;8.674;2023-02-22T19:57:58;9.30;92.60
21770;DHT22;11046;49.558;8.674;2023-02-22T20:01:02;9.20;92.70
21770;DHT22;11046;49.558;8.674;2023-02-22T20:04:13;9.20;92.80
21770;DHT22;11046;49.558;8.674;2023-02-22T20:07:17;9.20;92.80
21770;DHT22;11046;49.558;8.674;2023-02-22T20:10:18;9.20;92.90
21770;DHT22;11046;49.558;8.674;2023-02-22T20:13:19;9.10;93.00
21770;DHT22;11046;49.558;8.674;2023-02-22T20:16:22;9.10;93.00
21770;DHT22;11046;49.558;8.674;2023-02-22T20:19:23;9.10;93.10
21770;DHT22;11046;49.558;8.674;2023-02-22T20:22:31;9.00;93.20
21770;DHT22;11046;49.558;8.674;2023-02-22T20:25:34;8.90;93.40
21770;DHT22;11046;49.558;8.674;2023-02-22T20:28:35;9.00;93.30
21770;DHT22;11046;49.558;8.674;2023-02-22T20:31:37;8.90;93.30
21770;DHT22;11046;49.558;8.674;2023-02-22T20:34:44;8.80;93.40
21770;DHT22;11046;49.558;8.674;2023-02-22T20:37:47;8.70;93.60
21770;DHT22;11046;49.558;8.674;2023-02-22T20:40:48;8.70;93.70
21770;DHT22;11046;49.558;8.674;2023-02-22T20:43:50;8.70;93.70
21770;DHT22;11046;49.558;8.674;2023-02-22T20:46:51;8.60;93.80
21770;DHT22;11046;49.558;8.674;2023-02-22T20:49:52;8.60;93.90
21770;DHT22;11046;49.558;8.674;2023-02-22T20:52:52;8.60;93.90